sensor_id;sensor_type;location;lat;lon;timestamp;pressure;altitude;pressure_sealevel;temperature;humidity
4024;BME280;2026;51.002;13.668;2023-05-19T00:01:58;99906.09;;;11.63;70.27
4024;BME280;2026;51.002;13.668;2023-05-19T00:07:03;99907.50;;;11.59;70.25
4024;BME280;2026;51.002;13.668;2023-05-19T00:12:09;99904.88;;;11.59;69.55
4024;BME280;2026;51.002;13.668;2023-05-19T00:17:13;99898.75;;;11.45;70.40
4024;BME280;2026;51.002;13.668;2023-05-19T00:22:18;99900.75;;;11.42;70.31
4024;BME280;2026;51.002;13.668;2023-05-19T00:27:21;99888.78;;;11.33;70.49
4024;BME280;2026;51.002;13.668;2023-05-19T00:32:24;99881.88;;;11.25;70.37
4024;BME280;2026;51.002;13.668;2023-05-19T00:37:29;99882.06;;;11.17;70.39
4024;BME280;2026;51.002;13.668;2023-05-19T00:42:32;99887.88;;;11.12;71.10
4024;BME280;2026;51.002;13.668;2023-05-19T00:47:35;99883.00;;;11.02;71.40
4024;BME280;2026;51.002;13.668;2023-05-19T00:52:39;99889.63;;;10.98;71.97
4024;BME280;2026;51.002;13.668;2023-05-19T00:57:43;99891.53;;;10.83;72.82
4024;BME280;2026;51.002;13.668;2023-05-19T01:02:46;99884.59;;;10.68;72.99
4024;BME280;2026;51.002;13.668;2023-05-19T01:07:52;99881.69;;;10.56;72.83
4024;BME280;2026;51.002;13.668;2023-05-19T01:12:57;99887.69;;;10.50;72.89
4024;BME280;2026;51.002;13.668;2023-05-19T01:18:04;99883.97;;;10.38;72.93
4024;BME280;2026;51.002;13.668;2023-05-19T01:23:24;99879.47;;;10.31;73.07
4024;BME280;2026;51.002;13.668;2023-05-19T01:28:52;99884.41;;;10.19;73.70
4024;BME280;2026;51.002;13.668;2023-05-19T01:34:01;99872.44;;;10.10;73.98
4024;BME280;2026;51.002;13.668;2023-05-19T01:39:06;99879.94;;;9.91;75.06
4024;BME280;2026;51.002;13.668;2023-05-19T01:44:10;99882.91;;;9.88;75.63
4024;BME280;2026;51.002;13.668;2023-05-19T01:49:15;99889.34;;;9.86;75.69
4024;BME280;2026;51.002;13.668;2023-05-19T01:54:18;99880.16;;;9.75;76.73
4024;BME280;2026;51.002;13.668;2023-05-19T01:59:41;99874.75;;;9.76;76.30
4024;BME280;2026;51.002;13.668;2023-05-19T02:04:50;99872.56;;;9.80;76.55
4024;BME280;2026;51.002;13.668;2023-05-19T02:10:00;99877.75;;;9.73;77.46
4024;BME280;2026;51.002;13.668;2023-05-19T02:15:10;99877.59;;;9.60;78.28
4024;BME280;2026;51.002;13.668;2023-05-19T02:20:17;99869.13;;;9.58;78.00
4024;BME280;2026;51.002;13.668;2023-05-19T02:25:22;99870.72;;;9.59;78.63
4024;BME280;2026;51.002;13.668;2023-05-19T02:30:25;99876.88;;;9.51;78.44
4024;BME280;2026;51.002;13.668;2023-05-19T02:35:30;99869.53;;;9.46;79.48
4024;BME280;2026;51.002;13.668;2023-05-19T02:40:34;99871.47;;;9.37;79.73
4024;BME280;2026;51.002;13.668;2023-05-19T02:45:37;99876.44;;;9.32;80.56
4024;BME280;2026;51.002;13.668;2023-05-19T02:50:41;99864.63;;;9.21;81.15
4024;BME280;2026;51.002;13.668;2023-05-19T02:55:44;99869.84;;;9.21;81.08
4024;BME280;2026;51.002;13.668;2023-05-19T03:00:48;99856.44;;;9.09;81.77
4024;BME280;2026;51.002;13.668;2023-05-19T03:05:53;99854.81;;;9.08;82.24
4024;BME280;2026;51.002;13.668;2023-05-19T03:10:56;99847.69;;;9.02;82.10
4024;BME280;2026;51.002;13.668;2023-05-19T03:15:59;99849.19;;;9.12;81.73
4024;BME280;2026;51.002;13.668;2023-05-19T03:21:04;99860.31;;;8.99;81.88
4024;BME280;2026;51.002;13.668;2023-05-19T03:26:07;99866.63;;;9.04;82.32
4024;BME280;2026;51.002;13.668;2023-05-19T03:31:10;99853.63;;;9.11;81.26
4024;BME280;2026;51.002;13.668;2023-05-19T03:36:14;99860.22;;;8.92;83.11
4024;BME280;2026;51.002;13.668;2023-05-19T03:41:18;99867.78;;;8.87;83.79
4024;BME280;2026;51.002;13.668;2023-05-19T03:46:21;99871.50;;;9.07;82.95
4024;BME280;2026;51.002;13.668;2023-05-19T03:51:45;99872.13;;;9.09;83.24
4024;BME280;2026;51.002;13.668;2023-05-19T03:57:07;99869.88;;;9.06;84.16
4024;BME280;2026;51.002;13.668;2023-05-19T04:02:10;99861.59;;;9.03;84.69
4024;BME280;2026;51.002;13.668;2023-05-19T04:07:15;99872.31;;;9.08;84.23
4024;BME280;2026;51.002;13.668;2023-05-19T04:12:18;99878.16;;;9.25;84.03
4024;BME280;2026;51.002;13.668;2023-05-19T04:17:21;99871.47;;;9.22;83.60
4024;BME280;2026;51.002;13.668;2023-05-19T04:22:29;99869.97;;;8.98;85.75
4024;BME280;2026;51.002;13.668;2023-05-19T04:27:32;99870.22;;;9.33;83.99
4024;BME280;2026;51.002;13.668;2023-05-19T04:32:37;99863.06;;;9.57;84.10
4024;BME280;2026;51.002;13.668;2023-05-19T04:37:43;99853.47;;;9.64;83.11
4024;BME280;2026;51.002;13.668;2023-05-19T04:42:48;99849.50;;;9.69;82.92
4024;BME280;2026;51.002;13.668;2023-05-19T04:47:53;99856.38;;;9.91;83.22
4024;BME280;2026;51.002;13.668;2023-05-19T04:53:00;99859.66;;;10.22;81.55
4024;BME280;2026;51.002;13.668;2023-05-19T04:58:03;99864.50;;;10.25;80.11
4024;BME280;2026;51.002;13.668;2023-05-19T05:03:07;99872.00;;;10.57;78.59
4024;BME280;2026;51.002;13.668;2023-05-19T05:08:11;99867.28;;;10.74;77.79
4024;BME280;2026;51.002;13.668;2023-05-19T05:13:17;99873.50;;;11.01;76.80
4024;BME280;2026;51.002;13.668;2023-05-19T05:18:22;99866.25;;;11.46;74.17
4024;BME280;2026;51.002;13.668;2023-05-19T05:23:28;99871.09;;;11.07;75.55
4024;BME280;2026;51.002;13.668;2023-05-19T05:28:32;99863.53;;;11.39;76.22
4024;BME280;2026;51.002;13.668;2023-05-19T05:33:37;99868.44;;;11.00;76.59
4024;BME280;2026;51.002;13.668;2023-05-19T05:38:42;99864.78;;;11.36;77.37
4024;BME280;2026;51.002;13.668;2023-05-19T05:43:46;99879.28;;;11.39;76.96
4024;BME280;2026;51.002;13.668;2023-05-19T05:48:50;99872.97;;;11.68;75.17
4024;BME280;2026;51.002;13.668;2023-05-19T05:53:55;99877.41;;;11.68;76.59
4024;BME280;2026;51.002;13.668;2023-05-19T05:59:05;99879.28;;;12.69;73.72
4024;BME280;2026;51.002;13.668;2023-05-19T06:04:09;99877.03;;;12.79;72.12
4024;BME280;2026;51.002;13.668;2023-05-19T06:09:13;99883.78;;;12.34;72.21
4024;BME280;2026;51.002;13.668;2023-05-19T06:14:17;99879.50;;;12.00;73.11
4024;BME280;2026;51.002;13.668;2023-05-19T06:19:45;99881.47;;;12.85;70.58
4024;BME280;2026;51.002;13.668;2023-05-19T06:24:51;99879.97;;;13.30;69.26
4024;BME280;2026;51.002;13.668;2023-05-19T06:29:54;99868.69;;;14.19;64.02
4024;BME280;2026;51.002;13.668;2023-05-19T06:34:59;99863.38;;;15.75;59.84
4024;BME280;2026;51.002;13.668;2023-05-19T06:40:04;99866.19;;;15.31;59.68
4024;BME280;2026;51.002;13.668;2023-05-19T06:45:09;99863.41;;;14.70;62.14
4024;BME280;2026;51.002;13.668;2023-05-19T06:50:13;99863.50;;;14.31;62.83
4024;BME280;2026;51.002;13.668;2023-05-19T06:55:19;99872.50;;;15.11;61.73
4024;BME280;2026;51.002;13.668;2023-05-19T07:00:23;99869.91;;;14.42;62.99
4024;BME280;2026;51.002;13.668;2023-05-19T07:05:27;99873.69;;;13.31;67.12
4024;BME280;2026;51.002;13.668;2023-05-19T07:10:33;99863.56;;;13.99;65.07
4024;BME280;2026;51.002;13.668;2023-05-19T07:15:41;99859.91;;;13.68;66.57
4024;BME280;2026;51.002;13.668;2023-05-19T07:20:44;99858.34;;;14.43;65.22
4024;BME280;2026;51.002;13.668;2023-05-19T07:25:53;99858.25;;;14.56;62.47
4024;BME280;2026;51.002;13.668;2023-05-19T07:30:56;99851.53;;;14.61;61.64
4024;BME280;2026;51.002;13.668;2023-05-19T07:35:59;99850.09;;;14.14;64.99
4024;BME280;2026;51.002;13.668;2023-05-19T07:41:04;99851.59;;;15.71;59.95
4024;BME280;2026;51.002;13.668;2023-05-19T07:46:07;99850.69;;;16.80;57.17
4024;BME280;2026;51.002;13.668;2023-05-19T07:51:11;99844.81;;;16.18;59.33
4024;BME280;2026;51.002;13.668;2023-05-19T07:56:15;99843.22;;;15.62;59.19
4024;BME280;2026;51.002;13.668;2023-05-19T08:01:18;99843.25;;;17.64;54.14
4024;BME280;2026;51.002;13.668;2023-05-19T08:06:21;99837.66;;;16.78;53.41
4024;BME280;2026;51.002;13.668;2023-05-19T08:11:27;99833.50;;;18.16;55.42
4024;BME280;2026;51.002;13.668;2023-05-19T08:16:30;99843.16;;;17.00;53.33
4024;BME280;2026;51.002;13.668;2023-05-19T08:21:33;99841.00;;;17.55;52.50
4024;BME280;2026;51.002;13.668;2023-05-19T08:26:37;99842.19;;;16.30;54.58
4024;BME280;2026;51.002;13.668;2023-05-19T08:31:40;99832.06;;;16.51;54.60
4024;BME280;2026;51.002;13.668;2023-05-19T08:36:43;99816.97;;;17.45;52.79
4024;BME280;2026;51.002;13.668;2023-05-19T08:41:49;99808.88;;;19.27;50.44
4024;BME280;2026;51.002;13.668;2023-05-19T08:46:54;99807.34;;;19.31;46.94
4024;BME280;2026;51.002;13.668;2023-05-19T08:52:01;99809.28;;;18.29;47.13
4024;BME280;2026;51.002;13.668;2023-05-19T08:57:09;99820.56;;;17.39;50.22
4024;BME280;2026;51.002;13.668;2023-05-19T09:02:13;99810.66;;;17.97;48.25
4024;BME280;2026;51.002;13.668;2023-05-19T09:07:17;99817.44;;;18.84;47.68
4024;BME280;2026;51.002;13.668;2023-05-19T09:12:21;99798.59;;;19.08;49.69
4024;BME280;2026;51.002;13.668;2023-05-19T09:17:24;99794.75;;;18.54;49.48
4024;BME280;2026;51.002;13.668;2023-05-19T09:22:27;99789.78;;;16.92;54.34
4024;BME280;2026;51.002;13.668;2023-05-19T09:27:32;99805.59;;;17.15;54.52
4024;BME280;2026;51.002;13.668;2023-05-19T09:32:35;99807.25;;;16.81;54.60
4024;BME280;2026;51.002;13.668;2023-05-19T09:37:39;99796.66;;;18.36;50.76
4024;BME280;2026;51.002;13.668;2023-05-19T09:42:43;99804.72;;;18.07;48.91
4024;BME280;2026;51.002;13.668;2023-05-19T09:47:46;99794.25;;;18.35;50.12
4024;BME280;2026;51.002;13.668;2023-05-19T09:52:50;99775.28;;;19.15;47.36
4024;BME280;2026;51.002;13.668;2023-05-19T09:57:55;99781.97;;;17.14;51.00
4024;BME280;2026;51.002;13.668;2023-05-19T10:02:58;99780.34;;;18.50;48.09
4024;BME280;2026;51.002;13.668;2023-05-19T10:08:03;99780.03;;;18.24;50.03
4024;BME280;2026;51.002;13.668;2023-05-19T10:13:09;99776.72;;;17.31;51.17
4024;BME280;2026;51.002;13.668;2023-05-19T10:18:14;99785.00;;;18.60;49.76
4024;BME280;2026;51.002;13.668;2023-05-19T10:23:19;99778.88;;;17.34;52.27
4024;BME280;2026;51.002;13.668;2023-05-19T10:28:29;99771.25;;;17.89;49.99
4024;BME280;2026;51.002;13.668;2023-05-19T10:33:58;99768.38;;;17.91;51.38
4024;BME280;2026;51.002;13.668;2023-05-19T10:39:04;99762.63;;;18.33;50.92
4024;BME280;2026;51.002;13.668;2023-05-19T10:44:15;99760.13;;;17.53;51.77
4024;BME280;2026;51.002;13.668;2023-05-19T10:49:23;99766.75;;;17.38;52.36
4024;BME280;2026;51.002;13.668;2023-05-19T10:54:40;99769.09;;;17.35;54.03
4024;BME280;2026;51.002;13.668;2023-05-19T10:59:45;99762.91;;;17.63;54.43
4024;BME280;2026;51.002;13.668;2023-05-19T11:04:50;99757.28;;;17.59;53.27
4024;BME280;2026;51.002;13.668;2023-05-19T11:09:54;99778.03;;;17.16;55.19
4024;BME280;2026;51.002;13.668;2023-05-19T11:14:58;99765.94;;;17.38;54.53
4024;BME280;2026;51.002;13.668;2023-05-19T11:20:01;99759.22;;;18.16;52.51
4024;BME280;2026;51.002;13.668;2023-05-19T11:25:06;99738.69;;;19.00;50.61
4024;BME280;2026;51.002;13.668;2023-05-19T11:30:12;99749.09;;;17.61;53.05
4024;BME280;2026;51.002;13.668;2023-05-19T11:35:18;99750.47;;;18.82;51.10
4024;BME280;2026;51.002;13.668;2023-05-19T11:40:22;99749.50;;;19.16;52.00
4024;BME280;2026;51.002;13.668;2023-05-19T11:45:27;99749.56;;;18.99;50.64
4024;BME280;2026;51.002;13.668;2023-05-19T11:50:31;99743.78;;;18.57;51.56
4024;BME280;2026;51.002;13.668;2023-05-19T11:55:34;99754.78;;;17.70;53.32
4024;BME280;2026;51.002;13.668;2023-05-19T12:00:39;99743.47;;;18.53;53.08
4024;BME280;2026;51.002;13.668;2023-05-19T12:05:44;99762.66;;;18.56;52.67
4024;BME280;2026;51.002;13.668;2023-05-19T12:10:49;99751.25;;;19.65;49.59
4024;BME280;2026;51.002;13.668;2023-05-19T12:15:58;99754.25;;;19.41;50.14
4024;BME280;2026;51.002;13.668;2023-05-19T12:21:01;99735.81;;;18.12;53.37
4024;BME280;2026;51.002;13.668;2023-05-19T12:26:05;99731.56;;;17.77;54.80
4024;BME280;2026;51.002;13.668;2023-05-19T12:31:10;99733.16;;;17.78;53.55
4024;BME280;2026;51.002;13.668;2023-05-19T12:36:14;99735.16;;;18.67;52.21
4024;BME280;2026;51.002;13.668;2023-05-19T12:41:17;99738.34;;;17.68;55.19
4024;BME280;2026;51.002;13.668;2023-05-19T12:46:22;99749.63;;;17.97;54.64
4024;BME280;2026;51.002;13.668;2023-05-19T12:51:25;99735.66;;;18.02;54.88
4024;BME280;2026;51.002;13.668;2023-05-19T12:56:28;99737.03;;;18.94;52.05
4024;BME280;2026;51.002;13.668;2023-05-19T13:01:35;99731.88;;;17.98;55.17
4024;BME280;2026;51.002;13.668;2023-05-19T13:06:38;99723.28;;;18.52;52.97
4024;BME280;2026;51.002;13.668;2023-05-19T13:11:42;99733.75;;;17.80;54.28
4024;BME280;2026;51.002;13.668;2023-05-19T13:16:46;99725.75;;;18.15;53.78
4024;BME280;2026;51.002;13.668;2023-05-19T13:21:50;99724.81;;;17.86;55.53
4024;BME280;2026;51.002;13.668;2023-05-19T13:26:52;99719.75;;;17.68;57.25
4024;BME280;2026;51.002;13.668;2023-05-19T13:31:58;99723.03;;;18.09;56.12
4024;BME280;2026;51.002;13.668;2023-05-19T13:37:02;99729.41;;;17.74;57.44
4024;BME280;2026;51.002;13.668;2023-05-19T13:42:05;99730.38;;;17.51;57.69
4024;BME280;2026;51.002;13.668;2023-05-19T13:47:09;99724.75;;;17.47;57.49
4024;BME280;2026;51.002;13.668;2023-05-19T13:52:12;99720.97;;;17.43;57.51
4024;BME280;2026;51.002;13.668;2023-05-19T13:57:15;99723.19;;;17.68;55.92
4024;BME280;2026;51.002;13.668;2023-05-19T14:02:20;99724.00;;;18.03;55.71
4024;BME280;2026;51.002;13.668;2023-05-19T14:07:23;99721.78;;;17.78;57.00
4024;BME280;2026;51.002;13.668;2023-05-19T14:12:28;99722.25;;;18.09;57.18
4024;BME280;2026;51.002;13.668;2023-05-19T14:17:52;99724.31;;;17.21;59.97
4024;BME280;2026;51.002;13.668;2023-05-19T14:22:55;99721.28;;;17.64;59.32
4024;BME280;2026;51.002;13.668;2023-05-19T14:27:58;99743.72;;;17.10;61.31
4024;BME280;2026;51.002;13.668;2023-05-19T14:33:05;99715.75;;;17.65;59.61
4024;BME280;2026;51.002;13.668;2023-05-19T14:38:08;99722.88;;;17.30;59.49
4024;BME280;2026;51.002;13.668;2023-05-19T14:43:11;99732.84;;;17.23;61.25
4024;BME280;2026;51.002;13.668;2023-05-19T14:48:15;99726.75;;;17.57;60.18
4024;BME280;2026;51.002;13.668;2023-05-19T14:53:18;99721.94;;;17.37;61.22
4024;BME280;2026;51.002;13.668;2023-05-19T14:58:21;99729.00;;;17.65;60.36
4024;BME280;2026;51.002;13.668;2023-05-19T15:03:31;99725.94;;;18.08;59.88
4024;BME280;2026;51.002;13.668;2023-05-19T15:08:34;99724.97;;;17.97;58.88
4024;BME280;2026;51.002;13.668;2023-05-19T15:13:38;99729.13;;;17.93;60.58
4024;BME280;2026;51.002;13.668;2023-05-19T15:18:42;99740.44;;;17.02;62.37
4024;BME280;2026;51.002;13.668;2023-05-19T15:23:46;99739.28;;;17.27;62.44
4024;BME280;2026;51.002;13.668;2023-05-19T15:28:50;99729.72;;;17.61;61.42
4024;BME280;2026;51.002;13.668;2023-05-19T15:33:55;99735.59;;;17.28;62.81
4024;BME280;2026;51.002;13.668;2023-05-19T15:38:58;99746.00;;;17.18;63.48
4024;BME280;2026;51.002;13.668;2023-05-19T15:44:01;99740.00;;;16.94;63.90
4024;BME280;2026;51.002;13.668;2023-05-19T15:49:05;99746.56;;;16.91;63.12
4024;BME280;2026;51.002;13.668;2023-05-19T15:54:08;99743.38;;;16.77;64.29
4024;BME280;2026;51.002;13.668;2023-05-19T15:59:11;99750.13;;;16.56;64.86
4024;BME280;2026;51.002;13.668;2023-05-19T16:04:16;99756.72;;;16.29;65.30
4024;BME280;2026;51.002;13.668;2023-05-19T16:09:19;99770.59;;;16.60;65.05
4024;BME280;2026;51.002;13.668;2023-05-19T16:14:22;99763.56;;;15.71;67.53
4024;BME280;2026;51.002;13.668;2023-05-19T16:19:26;99766.25;;;15.40;69.44
4024;BME280;2026;51.002;13.668;2023-05-19T16:24:29;99758.16;;;15.65;68.88
4024;BME280;2026;51.002;13.668;2023-05-19T16:29:32;99767.34;;;15.63;68.50
4024;BME280;2026;51.002;13.668;2023-05-19T16:34:36;99758.03;;;15.72;68.36
4024;BME280;2026;51.002;13.668;2023-05-19T16:39:39;99762.69;;;15.34;69.93
4024;BME280;2026;51.002;13.668;2023-05-19T16:44:44;99761.25;;;15.50;69.38
4024;BME280;2026;51.002;13.668;2023-05-19T16:49:48;99776.88;;;15.64;68.93
4024;BME280;2026;51.002;13.668;2023-05-19T16:54:51;99765.47;;;15.39;70.04
4024;BME280;2026;51.002;13.668;2023-05-19T16:59:54;99779.69;;;15.08;70.55
4024;BME280;2026;51.002;13.668;2023-05-19T17:04:59;99761.06;;;15.33;70.43
4024;BME280;2026;51.002;13.668;2023-05-19T17:10:02;99754.19;;;15.32;69.94
4024;BME280;2026;51.002;13.668;2023-05-19T17:15:06;99759.00;;;15.35;68.80
4024;BME280;2026;51.002;13.668;2023-05-19T17:20:11;99760.53;;;14.82;70.79
4024;BME280;2026;51.002;13.668;2023-05-19T17:25:15;99757.22;;;14.87;71.18
4024;BME280;2026;51.002;13.668;2023-05-19T17:30:18;99763.31;;;14.68;71.73
4024;BME280;2026;51.002;13.668;2023-05-19T17:35:22;99768.63;;;14.50;72.15
4024;BME280;2026;51.002;13.668;2023-05-19T17:40:28;99766.00;;;14.43;72.66
4024;BME280;2026;51.002;13.668;2023-05-19T17:45:31;99769.28;;;14.45;72.75
4024;BME280;2026;51.002;13.668;2023-05-19T17:50:36;99786.59;;;14.34;73.05
4024;BME280;2026;51.002;13.668;2023-05-19T17:55:39;99775.00;;;14.61;73.08
4024;BME280;2026;51.002;13.668;2023-05-19T18:00:43;99766.09;;;14.55;72.95
4024;BME280;2026;51.002;13.668;2023-05-19T18:05:48;99762.22;;;14.57;72.67
4024;BME280;2026;51.002;13.668;2023-05-19T18:10:53;99756.22;;;14.50;73.15
4024;BME280;2026;51.002;13.668;2023-05-19T18:15:57;99754.47;;;14.63;72.44
4024;BME280;2026;51.002;13.668;2023-05-19T18:21:01;99768.53;;;14.56;72.96
4024;BME280;2026;51.002;13.668;2023-05-19T18:26:04;99766.19;;;14.48;73.38
4024;BME280;2026;51.002;13.668;2023-05-19T18:31:08;99769.09;;;14.40;73.32
4024;BME280;2026;51.002;13.668;2023-05-19T18:36:17;99768.56;;;14.31;74.44
4024;BME280;2026;51.002;13.668;2023-05-19T18:41:20;99765.69;;;14.14;75.02
4024;BME280;2026;51.002;13.668;2023-05-19T18:46:23;99764.56;;;14.03;75.69
4024;BME280;2026;51.002;13.668;2023-05-19T18:51:28;99769.56;;;13.86;76.06
4024;BME280;2026;51.002;13.668;2023-05-19T18:56:32;99773.50;;;14.02;76.01
4024;BME280;2026;51.002;13.668;2023-05-19T19:01:34;99777.09;;;14.08;75.39
4024;BME280;2026;51.002;13.668;2023-05-19T19:06:39;99773.59;;;14.14;75.63
4024;BME280;2026;51.002;13.668;2023-05-19T19:11:44;99780.75;;;14.07;75.90
4024;BME280;2026;51.002;13.668;2023-05-19T19:16:47;99772.69;;;14.01;76.15
4024;BME280;2026;51.002;13.668;2023-05-19T19:21:51;99777.13;;;14.01;76.23
4024;BME280;2026;51.002;13.668;2023-05-19T19:26:54;99778.06;;;13.88;76.23
4024;BME280;2026;51.002;13.668;2023-05-19T19:31:57;99777.16;;;13.75;77.42
4024;BME280;2026;51.002;13.668;2023-05-19T19:37:02;99780.28;;;13.66;78.35
4024;BME280;2026;51.002;13.668;2023-05-19T19:42:05;99783.09;;;13.71;77.93
4024;BME280;2026;51.002;13.668;2023-05-19T19:47:08;99783.44;;;13.42;79.32
4024;BME280;2026;51.002;13.668;2023-05-19T19:52:13;99778.03;;;13.37;80.24
4024;BME280;2026;51.002;13.668;2023-05-19T19:57:16;99778.75;;;13.51;79.63
4024;BME280;2026;51.002;13.668;2023-05-19T20:02:19;99774.28;;;13.52;79.51
4024;BME280;2026;51.002;13.668;2023-05-19T20:07:24;99778.91;;;13.56;79.40
4024;BME280;2026;51.002;13.668;2023-05-19T20:12:27;99778.03;;;13.30;80.83
4024;BME280;2026;51.002;13.668;2023-05-19T20:17:30;99782.84;;;13.47;80.33
4024;BME280;2026;51.002;13.668;2023-05-19T20:22:35;99783.03;;;13.45;80.54
4024;BME280;2026;51.002;13.668;2023-05-19T20:27:38;99777.19;;;13.43;80.80
4024;BME280;2026;51.002;13.668;2023-05-19T20:32:41;99779.31;;;13.28;81.64
4024;BME280;2026;51.002;13.668;2023-05-19T20:37:45;99786.13;;;13.36;81.13
4024;BME280;2026;51.002;13.668;2023-05-19T20:42:49;99790.94;;;13.45;81.69
4024;BME280;2026;51.002;13.668;2023-05-19T20:47:53;99783.28;;;13.37;81.71
4024;BME280;2026;51.002;13.668;2023-05-19T20:52:59;99792.13;;;13.50;80.54
4024;BME280;2026;51.002;13.668;2023-05-19T20:58:02;99784.91;;;13.38;81.27
4024;BME280;2026;51.002;13.668;2023-05-19T21:03:05;99775.41;;;13.30;81.38
4024;BME280;2026;51.002;13.668;2023-05-19T21:08:10;99784.25;;;13.11;83.15
4024;BME280;2026;51.002;13.668;2023-05-19T21:13:13;99779.75;;;13.18;82.16
4024;BME280;2026;51.002;13.668;2023-05-19T21:18:16;99782.94;;;13.27;82.41
4024;BME280;2026;51.002;13.668;2023-05-19T21:23:20;99781.75;;;13.23;82.63
4024;BME280;2026;51.002;13.668;2023-05-19T21:28:23;99787.88;;;13.10;82.87
4024;BME280;2026;51.002;13.668;2023-05-19T21:33:26;99790.28;;;13.18;83.31
4024;BME280;2026;51.002;13.668;2023-05-19T21:38:30;99793.34;;;13.08;83.21
4024;BME280;2026;51.002;13.668;2023-05-19T21:43:33;99794.97;;;13.09;83.26
4024;BME280;2026;51.002;13.668;2023-05-19T21:48:36;99792.94;;;13.11;83.09
4024;BME280;2026;51.002;13.668;2023-05-19T21:53:41;99789.44;;;13.24;82.28
4024;BME280;2026;51.002;13.668;2023-05-19T21:58:44;99787.09;;;13.02;83.66
4024;BME280;2026;51.002;13.668;2023-05-19T22:03:47;99781.44;;;12.99;83.86
4024;BME280;2026;51.002;13.668;2023-05-19T22:08:51;99783.00;;;13.13;82.96
4024;BME280;2026;51.002;13.668;2023-05-19T22:13:54;99778.16;;;13.10;83.66
4024;BME280;2026;51.002;13.668;2023-05-19T22:18:57;99783.47;;;12.97;83.99
4024;BME280;2026;51.002;13.668;2023-05-19T22:24:02;99782.63;;;13.03;84.07
4024;BME280;2026;51.002;13.668;2023-05-19T22:29:05;99783.47;;;13.03;84.08
4024;BME280;2026;51.002;13.668;2023-05-19T22:34:08;99790.75;;;12.94;84.36
4024;BME280;2026;51.002;13.668;2023-05-19T22:39:14;99777.78;;;13.00;84.40
4024;BME280;2026;51.002;13.668;2023-05-19T22:44:17;99776.63;;;12.82;84.62
4024;BME280;2026;51.002;13.668;2023-05-19T22:49:20;99779.50;;;12.74;85.55
4024;BME280;2026;51.002;13.668;2023-05-19T22:54:25;99766.69;;;12.84;85.35
4024;BME280;2026;51.002;13.668;2023-05-19T22:59:28;99766.13;;;12.82;85.51
4024;BME280;2026;51.002;13.668;2023-05-19T23:04:31;99748.94;;;12.73;85.89
4024;BME280;2026;51.002;13.668;2023-05-19T23:09:36;99758.38;;;12.87;85.59
4024;BME280;2026;51.002;13.668;2023-05-19T23:14:39;99756.31;;;13.03;84.49
4024;BME280;2026;51.002;13.668;2023-05-19T23:19:42;99763.31;;;12.63;86.38
4024;BME280;2026;51.002;13.668;2023-05-19T23:24:46;99761.72;;;12.69;86.71
4024;BME280;2026;51.002;13.668;2023-05-19T23:29:49;99766.69;;;12.84;85.71
4024;BME280;2026;51.002;13.668;2023-05-19T23:34:52;99767.72;;;12.83;85.73
4024;BME280;2026;51.002;13.668;2023-05-19T23:39:57;99777.09;;;12.65;86.67
4024;BME280;2026;51.002;13.668;2023-05-19T23:45:00;99766.00;;;12.50;87.64
4024;BME280;2026;51.002;13.668;2023-05-19T23:50:03;99764.97;;;12.58;87.51
4024;BME280;2026;51.002;13.668;2023-05-19T23:55:08;99770.63;;;12.61;87.57
